createdAt,value
2023-02-03T00:01:44.010Z,84.12
2023-02-03T00:04:10.514Z,84.11
2023-02-03T00:06:37.155Z,83.59
2023-02-03T00:09:03.772Z,84.04
2023-02-03T00:11:30.807Z,83.93
2023-02-03T00:13:57.300Z,83.89
2023-02-03T00:16:23.882Z,83.56
2023-02-03T00:18:50.431Z,84.90
2023-02-03T00:21:16.949Z,84.37
2023-02-03T00:23:43.590Z,84.13
2023-02-03T00:26:12.913Z,84.17
2023-02-03T00:28:41.804Z,83.99
2023-02-03T00:31:22.258Z,84.19
2023-02-03T00:33:54.266Z,84.36
2023-02-03T00:36:20.823Z,84.36
2023-02-03T00:38:47.314Z,83.77
2023-02-03T00:41:13.779Z,83.97
2023-02-03T00:43:40.302Z,83.41
2023-02-03T00:46:07.853Z,83.35
2023-02-03T00:48:35.160Z,83.25
2023-02-03T00:51:01.664Z,83.33
2023-02-03T00:53:28.206Z,82.83
2023-02-03T00:55:54.907Z,83.03
2023-02-03T00:58:22.250Z,83.41
2023-02-03T01:00:48.852Z,83.07
2023-02-03T01:03:16.521Z,82.84
2023-02-03T01:05:43.001Z,82.33
2023-02-03T01:08:09.524Z,82.19
2023-02-03T01:10:38.221Z,81.97
2023-02-03T01:13:04.724Z,81.77
2023-02-03T01:15:31.297Z,82.18
2023-02-03T01:17:57.763Z,81.54
2023-02-03T01:20:24.520Z,81.79
2023-02-03T01:22:51.166Z,81.99
2023-02-03T01:25:17.769Z,81.40
2023-02-03T01:27:44.255Z,82.12
2023-02-03T01:30:11.425Z,82.04
2023-02-03T01:32:37.978Z,82.11
2023-02-03T01:35:04.804Z,82.25
2023-02-03T01:37:31.325Z,82.05
2023-02-03T01:39:57.843Z,81.93
2023-02-03T01:42:24.376Z,81.87
2023-02-03T01:44:52.021Z,81.81
2023-02-03T01:47:23.175Z,82.28
2023-02-03T01:50:30.645Z,82.25
2023-02-03T01:53:02.654Z,82.02
2023-02-03T01:55:37.362Z,82.27
2023-02-03T01:58:15.806Z,82.26
2023-02-03T02:00:43.712Z,82.14
2023-02-03T02:03:10.836Z,81.89
2023-02-03T02:05:52.503Z,82.68
2023-02-03T02:08:20.378Z,82.44
2023-02-03T02:10:47.087Z,82.89
2023-02-03T02:13:15.563Z,82.96
2023-02-03T02:15:57.336Z,83.76
2023-02-03T02:18:58.233Z,83.44
2023-02-03T02:21:48.792Z,83.31
2023-02-03T02:24:24.453Z,83.58
2023-02-03T02:26:57.438Z,83.63
2023-02-03T02:29:26.990Z,83.74
2023-02-03T02:32:18.394Z,83.92
2023-02-03T02:34:54.080Z,84.45
2023-02-03T02:37:33.413Z,84.08
2023-02-03T02:40:07.426Z,84.57
2023-02-03T02:42:42.686Z,84.60
2023-02-03T02:45:16.109Z,85.06
2023-02-03T02:47:45.022Z,85.03
2023-02-03T02:50:19.225Z,85.06
2023-02-03T02:52:48.578Z,85.52
2023-02-03T02:55:20.679Z,85.11
2023-02-03T02:57:48.398Z,85.43
2023-02-03T03:00:18.027Z,85.36
2023-02-03T03:02:44.650Z,85.57
2023-02-03T03:05:12.370Z,85.55
2023-02-03T03:07:50.727Z,85.71
2023-02-03T03:10:23.022Z,85.86
2023-02-03T03:12:54.575Z,86.26
2023-02-03T03:15:25.055Z,86.10
2023-02-03T03:17:59.182Z,86.02
2023-02-03T03:20:27.177Z,86.45
2023-02-03T03:23:05.815Z,86.15
2023-02-03T03:25:41.804Z,86.68
2023-02-03T03:28:15.079Z,86.41
2023-02-03T03:30:42.166Z,86.27
2023-02-03T03:33:09.579Z,86.10
2023-02-03T03:35:43.810Z,86.70
2023-02-03T03:38:34.172Z,86.26
2023-02-03T03:41:23.347Z,86.55
2023-02-03T03:43:52.937Z,86.34
2023-02-03T03:46:29.931Z,86.38
2023-02-03T03:49:03.690Z,86.16
2023-02-03T03:51:46.220Z,86.28
2023-02-03T03:54:16.453Z,85.95
2023-02-03T03:56:52.972Z,86.35
2023-02-03T03:59:22.298Z,85.97
2023-02-03T04:01:50.967Z,86.16
2023-02-03T04:04:19.549Z,86.50
2023-02-03T04:06:46.088Z,85.99
2023-02-03T04:09:12.581Z,86.31
2023-02-03T04:11:39.073Z,85.83
2023-02-03T04:14:05.588Z,85.77
2023-02-03T04:16:32.159Z,86.03
2023-02-03T04:18:58.683Z,85.81
2023-02-03T04:21:25.142Z,86.27
2023-02-03T04:23:51.613Z,85.56
2023-02-03T04:26:18.145Z,85.98
2023-02-03T04:28:44.831Z,85.93
2023-02-03T04:31:11.459Z,85.64
2023-02-03T04:33:37.992Z,85.72
2023-02-03T04:36:04.674Z,85.45
2023-02-03T04:38:31.217Z,85.39
2023-02-03T04:40:57.701Z,85.40
2023-02-03T04:43:24.237Z,85.53
2023-02-03T04:45:50.854Z,84.93
2023-02-03T04:48:17.363Z,85.05
2023-02-03T04:50:43.897Z,84.86
2023-02-03T04:53:10.450Z,85.06
2023-02-03T04:55:36.925Z,84.88
2023-02-03T04:58:03.560Z,85.15
2023-02-03T05:00:30.361Z,84.78
2023-02-03T05:02:57.104Z,84.86
2023-02-03T05:05:23.746Z,84.71
2023-02-03T05:07:50.244Z,83.97
2023-02-03T05:10:16.825Z,84.57
2023-02-03T05:12:43.291Z,84.33
2023-02-03T05:15:10.135Z,84.31
2023-02-03T05:17:36.656Z,84.15
2023-02-03T05:20:03.233Z,84.16
2023-02-03T05:22:29.754Z,83.93
2023-02-03T05:24:56.211Z,84.12
2023-02-03T05:27:22.727Z,84.24
2023-02-03T05:29:49.175Z,83.67
2023-02-03T05:32:15.667Z,84.03
2023-02-03T05:34:42.474Z,83.68
2023-02-03T05:37:08.978Z,83.74
2023-02-03T05:39:35.429Z,83.65
2023-02-03T05:42:01.924Z,83.78
2023-02-03T05:44:29.040Z,83.63
2023-02-03T05:46:58.911Z,83.44
2023-02-03T05:49:26.052Z,83.47
2023-02-03T05:51:54.304Z,83.35
2023-02-03T05:54:21.467Z,83.57
2023-02-03T05:56:47.990Z,83.52
2023-02-03T05:59:14.764Z,83.28
2023-02-03T06:01:41.333Z,83.14
2023-02-03T06:04:08.026Z,83.33
2023-02-03T06:06:34.833Z,83.04
2023-02-03T06:09:02.812Z,83.27
2023-02-03T06:11:30.251Z,83.29
2023-02-03T06:13:57.508Z,83.20
2023-02-03T06:16:27.933Z,83.71
2023-02-03T06:18:56.036Z,82.94
2023-02-03T06:21:22.529Z,83.20
2023-02-03T06:23:48.985Z,83.24
2023-02-03T06:26:15.570Z,83.44
2023-02-03T06:28:42.042Z,83.58
2023-02-03T06:31:08.774Z,83.27
2023-02-03T06:33:35.558Z,83.71
2023-02-03T06:36:02.070Z,83.28
2023-02-03T06:38:28.558Z,83.36
2023-02-03T06:40:55.027Z,83.44
2023-02-03T06:43:21.529Z,83.19
2023-02-03T06:45:48.133Z,83.53
2023-02-03T06:48:15.308Z,83.29
2023-02-03T06:50:41.867Z,83.47
2023-02-03T06:53:08.391Z,83.72
2023-02-03T06:55:34.849Z,83.72
2023-02-03T06:58:01.329Z,83.72
2023-02-03T07:00:28.253Z,83.44
2023-02-03T07:02:56.587Z,83.94
2023-02-03T07:05:24.630Z,84.04
2023-02-03T07:07:51.957Z,84.03
2023-02-03T07:10:18.629Z,84.01
2023-02-03T07:12:45.336Z,84.17
2023-02-03T07:15:12.967Z,83.84
2023-02-03T07:17:39.487Z,84.13
2023-02-03T07:20:06.291Z,84.10
2023-02-03T07:22:32.814Z,84.42
2023-02-03T07:24:59.335Z,84.41
2023-02-03T07:27:26.364Z,84.86
2023-02-03T07:29:52.872Z,84.02
2023-02-03T07:32:19.360Z,84.00
2023-02-03T07:34:45.945Z,84.27
2023-02-03T07:37:12.453Z,84.44
2023-02-03T07:39:38.873Z,84.28
2023-02-03T07:42:05.428Z,84.32
2023-02-03T07:44:36.787Z,84.77
2023-02-03T07:47:03.274Z,84.22
2023-02-03T07:49:29.727Z,84.54
2023-02-03T07:51:56.273Z,84.72
2023-02-03T07:54:22.697Z,84.70
2023-02-03T07:56:49.220Z,84.39
2023-02-03T07:59:17.196Z,84.61
2023-02-03T08:01:43.859Z,84.61
2023-02-03T08:04:10.421Z,84.84
2023-02-03T08:06:36.935Z,84.33
2023-02-03T08:09:03.466Z,84.71
2023-02-03T08:11:29.991Z,84.80
2023-02-03T08:13:56.584Z,84.62
2023-02-03T08:16:23.119Z,84.61
2023-02-03T08:18:49.707Z,84.61
2023-02-03T08:21:16.197Z,84.93
2023-02-03T08:23:42.860Z,84.91
2023-02-03T08:26:09.541Z,84.62
2023-02-03T08:28:36.161Z,84.93
2023-02-03T08:31:10.084Z,84.85
2023-02-03T08:33:36.701Z,84.41
2023-02-03T08:36:05.147Z,84.67
2023-02-03T08:38:32.208Z,84.50
2023-02-03T08:40:58.830Z,84.71
2023-02-03T08:43:25.331Z,84.28
2023-02-03T08:45:52.135Z,84.81
2023-02-03T08:48:18.938Z,84.36
2023-02-03T08:50:45.382Z,84.21
2023-02-03T08:53:11.938Z,84.58
2023-02-03T08:55:39.848Z,84.45
2023-02-03T08:58:06.413Z,84.32
2023-02-03T09:00:32.919Z,84.38
2023-02-03T09:02:59.415Z,84.51
2023-02-03T09:05:25.905Z,83.90
2023-02-03T09:07:52.441Z,83.32
2023-02-03T09:10:18.946Z,82.88
2023-02-03T09:12:45.451Z,82.17
2023-02-03T09:15:11.948Z,82.38
2023-02-03T09:17:38.505Z,82.24
2023-02-03T09:20:05.827Z,81.68
2023-02-03T09:22:32.456Z,80.98
2023-02-03T09:24:59.073Z,80.31
2023-02-03T09:27:25.689Z,80.23
2023-02-03T09:29:52.453Z,80.00
2023-02-03T09:32:19.036Z,79.37
2023-02-03T09:34:45.539Z,79.21
2023-02-03T09:37:12.140Z,78.46
2023-02-03T09:39:38.668Z,78.19
2023-02-03T09:42:34.431Z,76.95
2023-02-03T09:45:01.032Z,76.57
2023-02-03T09:47:32.731Z,76.84
2023-02-03T09:50:02.573Z,76.08
2023-02-03T09:52:35.727Z,75.31
2023-02-03T09:55:11.233Z,75.25
2023-02-03T09:57:44.588Z,75.23
2023-02-03T10:00:26.486Z,73.88
2023-02-03T10:02:56.000Z,74.99
2023-02-03T10:05:44.451Z,74.03
2023-02-03T10:08:45.090Z,74.23
2023-02-03T10:11:23.741Z,73.38
2023-02-03T10:14:06.889Z,72.66
2023-02-03T10:16:48.813Z,73.53
2023-02-03T10:19:26.628Z,72.74
2023-02-03T10:21:58.830Z,72.88
2023-02-03T10:24:40.849Z,71.71
2023-02-03T10:27:20.610Z,71.73
2023-02-03T10:29:54.695Z,71.52
2023-02-03T10:32:21.267Z,72.10
2023-02-03T10:34:48.024Z,71.94
2023-02-03T10:37:30.471Z,71.15
2023-02-03T10:39:59.253Z,70.92
2023-02-03T10:42:25.989Z,71.62
2023-02-03T10:44:53.404Z,71.18
2023-02-03T10:47:26.152Z,71.10
2023-02-03T10:49:55.302Z,70.12
2023-02-03T10:52:47.961Z,69.80
2023-02-03T10:55:26.670Z,69.63
2023-02-03T10:57:54.472Z,70.46
2023-02-03T11:00:27.962Z,70.95
2023-02-03T11:03:26.530Z,70.82
2023-02-03T11:06:07.529Z,70.56
2023-02-03T11:08:35.839Z,70.94
2023-02-03T11:11:05.426Z,71.20
2023-02-03T11:13:32.580Z,71.63
2023-02-03T11:16:06.820Z,71.77
2023-02-03T11:19:04.373Z,71.47
2023-02-03T11:21:46.476Z,70.89
2023-02-03T11:24:20.506Z,71.27
2023-02-03T11:26:57.106Z,71.38
2023-02-03T11:29:26.597Z,71.46
2023-02-03T11:31:55.744Z,71.97
2023-02-03T11:34:25.034Z,71.27
2023-02-03T11:36:52.119Z,71.04
2023-02-03T11:39:27.585Z,71.29
2023-02-03T11:41:55.184Z,71.38
2023-02-03T11:44:27.830Z,70.95
2023-02-03T11:47:09.120Z,70.79
2023-02-03T11:50:02.797Z,70.43
2023-02-03T11:52:40.313Z,70.70
2023-02-03T11:55:31.243Z,70.44
2023-02-03T11:58:25.424Z,69.80
2023-02-03T12:01:28.355Z,70.42
2023-02-03T12:03:54.794Z,70.44
2023-02-03T12:06:29.203Z,69.42
2023-02-03T12:09:28.487Z,69.06
2023-02-03T12:12:29.049Z,69.65
2023-02-03T12:15:14.057Z,68.98
2023-02-03T12:17:52.775Z,68.59
2023-02-03T12:20:31.501Z,68.18
2023-02-03T12:23:17.866Z,68.48
2023-02-03T12:26:10.690Z,68.32
2023-02-03T12:29:15.371Z,68.37
2023-02-03T12:31:49.953Z,68.54
2023-02-03T12:34:31.981Z,67.50
2023-02-03T12:37:06.298Z,67.70
2023-02-03T12:39:40.103Z,67.66
2023-02-03T12:42:15.957Z,67.33
2023-02-03T12:44:46.952Z,67.67
2023-02-03T12:47:22.191Z,67.66
2023-02-03T12:50:06.368Z,67.49
2023-02-03T12:52:47.557Z,67.78
2023-02-03T12:55:32.123Z,67.58
2023-02-03T12:58:04.797Z,67.79
2023-02-03T13:00:49.765Z,66.24
2023-02-03T13:03:41.524Z,66.06
2023-02-03T13:06:16.071Z,65.94
2023-02-03T13:09:16.658Z,66.37
2023-02-03T13:12:06.478Z,65.01
2023-02-03T13:14:40.256Z,64.99
2023-02-03T13:17:12.627Z,64.41
2023-02-03T13:19:58.226Z,63.80
2023-02-03T13:22:24.798Z,64.58
2023-02-03T13:25:09.169Z,64.25
2023-02-03T13:27:57.651Z,62.92
2023-02-03T13:30:52.324Z,61.95
2023-02-03T13:33:45.748Z,62.41
2023-02-03T13:36:23.982Z,62.61
2023-02-03T13:39:18.556Z,62.22
2023-02-03T13:41:51.963Z,62.85
2023-02-03T13:44:25.157Z,63.96
2023-02-03T13:46:52.676Z,64.14
2023-02-03T13:49:37.483Z,64.19
2023-02-03T13:52:04.215Z,64.14
2023-02-03T13:54:35.812Z,64.53
2023-02-03T13:57:05.014Z,64.43
2023-02-03T13:59:37.613Z,64.66
2023-02-03T14:02:40.307Z,64.17
2023-02-03T14:05:29.320Z,65.04
2023-02-03T14:07:55.974Z,65.17
2023-02-03T14:10:23.126Z,64.94
2023-02-03T14:12:49.617Z,64.54
2023-02-03T14:15:29.127Z,64.80
2023-02-03T14:17:58.802Z,64.47
2023-02-03T14:20:25.223Z,64.91
2023-02-03T14:22:57.807Z,65.44
2023-02-03T14:25:25.964Z,64.86
2023-02-03T14:28:00.794Z,64.56
2023-02-03T14:30:27.438Z,65.34
2023-02-03T14:32:56.628Z,65.56
2023-02-03T14:35:38.027Z,64.68
2023-02-03T14:38:08.872Z,64.75
2023-02-03T14:40:42.941Z,64.91
2023-02-03T14:43:30.732Z,64.85
2023-02-03T14:46:15.317Z,64.71
2023-02-03T14:49:00.106Z,64.75
2023-02-03T14:51:29.716Z,64.64
2023-02-03T14:54:33.991Z,64.69
2023-02-03T14:57:30.866Z,64.61
2023-02-03T15:00:18.922Z,65.14
2023-02-03T15:03:07.106Z,65.71
2023-02-03T15:05:38.016Z,66.06
2023-02-03T15:08:04.571Z,65.98
2023-02-03T15:10:43.357Z,66.31
2023-02-03T15:13:31.895Z,66.50
2023-02-03T15:16:03.852Z,66.90
2023-02-03T15:18:34.302Z,66.85
2023-02-03T15:21:00.901Z,67.53
2023-02-03T15:23:38.570Z,67.51
2023-02-03T15:26:13.981Z,67.30
2023-02-03T15:28:40.619Z,66.89
2023-02-03T15:31:20.533Z,66.92
2023-02-03T15:33:48.659Z,66.75
2023-02-03T15:36:32.479Z,66.29
2023-02-03T15:39:16.016Z,66.78
2023-02-03T15:41:43.344Z,66.70
2023-02-03T15:44:23.529Z,67.16
2023-02-03T15:46:53.060Z,67.32
2023-02-03T15:49:30.027Z,67.32
2023-02-03T15:52:03.504Z,67.40
2023-02-03T15:54:41.309Z,68.04
2023-02-03T15:57:19.822Z,68.22
2023-02-03T15:59:55.105Z,68.15
2023-02-03T16:02:31.906Z,68.84
2023-02-03T16:05:03.432Z,68.76
2023-02-03T16:07:30.396Z,69.50
2023-02-03T16:09:58.845Z,69.62
2023-02-03T16:12:29.202Z,69.60
2023-02-03T16:14:57.545Z,70.01
2023-02-03T16:17:23.958Z,70.03
2023-02-03T16:19:51.171Z,70.14
2023-02-03T16:22:35.606Z,71.28
2023-02-03T16:25:26.825Z,71.05
2023-02-03T16:28:06.593Z,71.52
2023-02-03T16:30:33.201Z,71.30
2023-02-03T16:33:08.630Z,72.12
2023-02-03T16:35:35.190Z,71.73
2023-02-03T16:38:12.959Z,71.42
2023-02-03T16:40:39.497Z,71.97
2023-02-03T16:43:12.021Z,72.25
2023-02-03T16:45:38.660Z,72.33
2023-02-03T16:48:05.360Z,72.62
2023-02-03T16:50:38.715Z,72.56
2023-02-03T16:53:12.113Z,73.06
2023-02-03T16:55:38.846Z,73.52
2023-02-03T16:58:05.452Z,73.30
2023-02-03T17:00:31.993Z,73.72
2023-02-03T17:02:58.829Z,73.67
2023-02-03T17:05:25.566Z,74.36
2023-02-03T17:07:52.057Z,73.82
2023-02-03T17:10:18.540Z,74.30
2023-02-03T17:12:45.026Z,74.92
2023-02-03T17:15:11.533Z,75.36
2023-02-03T17:17:38.027Z,74.65
2023-02-03T17:20:04.985Z,75.42
2023-02-03T17:22:31.474Z,74.81
2023-02-03T17:24:58.012Z,75.57
2023-02-03T17:27:24.833Z,75.47
2023-02-03T17:29:51.328Z,75.76
2023-02-03T17:32:17.891Z,75.66
2023-02-03T17:34:44.485Z,75.73
2023-02-03T17:37:10.982Z,76.12
2023-02-03T17:55:49.176Z,76.75
2023-02-03T17:58:15.641Z,76.83
2023-02-03T18:00:42.156Z,76.90
2023-02-03T18:03:08.766Z,77.56
2023-02-03T18:05:35.228Z,77.75
2023-02-03T18:08:08.939Z,78.05
2023-02-03T18:10:43.439Z,77.67
2023-02-03T18:13:10.180Z,77.78
2023-02-03T18:15:37.633Z,78.22
2023-02-03T18:18:04.174Z,78.70
2023-02-03T18:20:30.906Z,78.55
2023-02-03T18:22:57.450Z,78.06
2023-02-03T18:25:23.897Z,78.52
2023-02-03T18:27:50.753Z,78.38
2023-02-03T18:30:17.388Z,78.64
2023-02-03T18:32:44.037Z,79.21
2023-02-03T18:35:10.566Z,79.33
2023-02-03T18:37:37.011Z,78.83
2023-02-03T18:40:03.732Z,79.41
2023-02-03T18:42:30.244Z,79.39
2023-02-03T18:44:56.703Z,79.47
2023-02-03T18:47:23.130Z,80.07
2023-02-03T18:49:49.644Z,79.98
2023-02-03T18:52:16.101Z,80.16
2023-02-03T18:54:42.601Z,79.92
2023-02-03T18:57:09.221Z,80.07
2023-02-03T18:59:35.666Z,79.97
2023-02-03T19:02:02.113Z,80.07
2023-02-03T19:04:28.855Z,80.09
2023-02-03T19:06:55.311Z,80.55
2023-02-03T19:09:21.852Z,80.28
2023-02-03T19:11:48.381Z,80.91
2023-02-03T19:14:14.938Z,80.44
2023-02-03T19:16:41.687Z,80.69
2023-02-03T19:19:08.428Z,80.90
2023-02-03T19:21:35.233Z,80.96
2023-02-03T19:24:01.745Z,80.67
2023-02-03T19:26:28.245Z,80.83
2023-02-03T19:28:55.029Z,81.12
2023-02-03T19:31:21.579Z,80.99
2023-02-03T19:33:48.194Z,81.54
2023-02-03T19:36:14.671Z,81.31
2023-02-03T19:38:41.277Z,81.13
2023-02-03T19:41:07.821Z,81.21
2023-02-03T19:43:34.314Z,81.01
2023-02-03T19:46:00.952Z,81.13
2023-02-03T19:48:27.566Z,80.93
2023-02-03T19:50:54.096Z,81.29
2023-02-03T19:53:20.663Z,81.38
2023-02-03T19:55:47.460Z,80.41
2023-02-03T19:58:14.267Z,80.87
2023-02-03T20:00:41.699Z,80.78
2023-02-03T20:03:08.354Z,80.37
2023-02-03T20:05:35.665Z,80.49
2023-02-03T20:08:02.352Z,80.47
2023-02-03T20:10:29.249Z,80.73
2023-02-03T20:12:55.896Z,81.17
2023-02-03T20:15:22.352Z,81.06
2023-02-03T20:17:49.099Z,81.12
2023-02-03T20:20:19.685Z,81.57
2023-02-03T20:22:47.257Z,81.63
2023-02-03T20:25:13.849Z,81.72
2023-02-03T20:27:40.517Z,81.65
2023-02-03T20:30:07.399Z,81.68
2023-02-03T20:32:34.234Z,81.37
2023-02-03T20:35:00.739Z,81.72
2023-02-03T20:37:27.282Z,82.03
2023-02-03T20:39:53.751Z,82.31
2023-02-03T20:42:20.360Z,81.68
2023-02-03T20:44:47.070Z,82.22
2023-02-03T20:47:16.052Z,81.58
2023-02-03T20:49:42.655Z,81.79
2023-02-03T20:52:17.904Z,81.07
2023-02-03T20:54:44.585Z,81.51
2023-02-03T20:57:16.742Z,81.71
2023-02-03T20:59:44.070Z,82.02
2023-02-03T21:02:24.385Z,81.74
2023-02-03T21:04:50.999Z,82.06
2023-02-03T21:07:17.712Z,81.47
2023-02-03T21:09:44.213Z,81.43
2023-02-03T21:12:12.727Z,81.09
2023-02-03T21:14:42.863Z,81.16
2023-02-03T21:17:19.881Z,81.44
2023-02-03T21:19:47.007Z,81.21
2023-02-03T21:22:17.346Z,81.96
2023-02-03T21:24:50.395Z,81.39
2023-02-03T21:27:30.451Z,81.76
2023-02-03T21:29:59.027Z,81.83
2023-02-03T21:32:38.117Z,81.51
2023-02-03T21:35:35.635Z,81.64
2023-02-03T21:38:24.862Z,81.69
2023-02-03T21:40:51.364Z,81.37
2023-02-03T21:43:18.184Z,81.59
2023-02-03T21:45:45.036Z,81.50
2023-02-03T21:48:28.051Z,81.13
2023-02-03T21:50:56.754Z,81.59
2023-02-03T21:53:27.043Z,81.75
2023-02-03T21:55:54.253Z,82.07
2023-02-03T21:58:28.043Z,82.30
2023-02-03T22:00:56.814Z,82.21
2023-02-03T22:03:38.522Z,82.29
2023-02-03T22:06:07.996Z,82.59
2023-02-03T22:08:49.395Z,82.32
2023-02-03T22:11:17.758Z,81.59
2023-02-03T22:13:44.253Z,82.22
2023-02-03T22:16:11.228Z,82.03
2023-02-03T22:18:37.715Z,82.73
2023-02-03T22:21:04.374Z,81.83
2023-02-03T22:23:30.830Z,81.78
2023-02-03T22:25:57.355Z,82.14
2023-02-03T22:28:24.672Z,82.47
2023-02-03T22:30:51.282Z,81.89
2023-02-03T22:33:18.268Z,82.56
2023-02-03T22:35:46.366Z,82.48
2023-02-03T22:38:12.833Z,83.01
2023-02-03T22:40:39.364Z,82.85
2023-02-03T22:43:05.882Z,82.47
2023-02-03T22:45:32.404Z,82.62
2023-02-03T22:47:58.912Z,82.26
2023-02-03T22:50:35.425Z,82.15
2023-02-03T22:53:02.974Z,82.00
2023-02-03T22:55:29.808Z,81.95
2023-02-03T22:57:56.719Z,81.69
2023-02-03T23:00:25.692Z,81.74
2023-02-03T23:02:52.261Z,81.36
2023-02-03T23:05:19.399Z,81.64
2023-02-03T23:07:46.356Z,81.58
2023-02-03T23:10:20.079Z,81.38
2023-02-03T23:12:46.709Z,81.49
2023-02-03T23:15:13.587Z,81.59
2023-02-03T23:17:40.737Z,80.89
2023-02-03T23:20:08.890Z,81.14
2023-02-03T23:22:35.378Z,81.13
2023-02-03T23:25:01.836Z,80.98
2023-02-03T23:27:28.394Z,80.99
2023-02-03T23:29:54.845Z,80.74
2023-02-03T23:32:21.382Z,80.98
2023-02-03T23:34:47.869Z,80.90
2023-02-03T23:37:14.305Z,80.56
2023-02-03T23:39:40.728Z,80.92
2023-02-03T23:42:07.256Z,81.06
2023-02-03T23:44:33.782Z,81.02
2023-02-03T23:47:00.335Z,81.09
2023-02-03T23:49:26.860Z,80.84
2023-02-03T23:51:53.343Z,80.37
2023-02-03T23:54:19.841Z,80.59
2023-02-03T23:56:46.310Z,80.42
2023-02-03T23:59:12.769Z,80.27
